Time;durP1;ratioP1;P1;durP2;ratioP2;P2;SDS_P1;SDS_P2;PMS_P1;PMS_P2;Temp;Humidity;BMP_temperature;BMP_pressure;BME280_temperature;BME280_humidity;BME280_pressure;Samples;Min_cycle;Max_cycle;Signal;HPM_P1;HPM_P2
2022/07/11 00:00:47;;;;;;;10.98;7.22;;;;;;;20.50;82.29;99187.22;5124219;28;20023;-64
2022/07/11 00:03:12;;;;;;;10.65;7.15;;;;;;;20.49;83.75;99180.31;5121343;28;21799;-65
2022/07/11 00:05:38;;;;;;;12.15;7.47;;;;;;;20.46;83.67;99175.25;5103824;28;20020;-64
2022/07/11 00:08:06;;;;;;;8.60;6.95;;;;;;;20.43;83.85;99180.72;5103601;28;20035;-64
2022/07/11 00:10:32;;;;;;;7.97;6.82;;;;;;;20.39;84.53;99176.63;5103680;28;20028;-64
2022/07/11 00:12:59;;;;;;;10.43;7.55;;;;;;;20.40;85.50;99186.19;5103497;28;20016;-64
2022/07/11 00:15:25;;;;;;;13.73;7.18;;;;;;;20.39;85.69;99194.22;5103412;28;20028;-64
2022/07/11 00:17:50;;;;;;;9.68;7.95;;;;;;;20.31;85.90;99181.59;5103594;28;20052;-64
2022/07/11 00:20:16;;;;;;;13.25;7.95;;;;;;;20.26;86.46;99179.28;5103434;28;20024;-64
2022/07/11 00:22:41;;;;;;;11.63;7.60;;;;;;;20.29;85.02;99176.41;5103451;28;20023;-64
2022/07/11 00:25:07;;;;;;;8.88;7.90;;;;;;;20.27;86.15;99180.97;5113628;28;20046;-64
2022/07/11 00:27:33;;;;;;;10.25;7.30;;;;;;;20.32;86.07;99180.63;5118248;28;20036;-64
2022/07/11 00:29:59;;;;;;;13.40;8.50;;;;;;;20.26;86.51;99171.38;5103271;28;20024;-63
2022/07/11 00:32:24;;;;;;;9.45;8.02;;;;;;;20.23;86.77;99186.56;5103436;28;20205;-64
2022/07/11 00:34:51;;;;;;;12.18;8.65;;;;;;;20.22;85.35;99192.75;5100261;28;20028;-64
2022/07/11 00:37:16;;;;;;;8.88;7.40;;;;;;;20.22;85.78;99195.38;5095463;28;20039;-64
2022/07/11 00:39:42;;;;;;;8.25;7.45;;;;;;;20.21;85.62;99201.56;5122248;28;20150;-64
2022/07/11 00:42:08;;;;;;;9.88;8.00;;;;;;;20.12;85.00;99185.50;5121830;28;20339;-65
2022/07/11 00:44:36;;;;;;;9.98;6.90;;;;;;;20.21;85.06;99197.19;5118672;28;20069;-64
2022/07/11 00:47:03;;;;;;;11.65;8.35;;;;;;;20.21;85.44;99209.47;5102842;28;20028;-64
2022/07/11 00:49:29;;;;;;;9.32;7.78;;;;;;;20.21;85.49;99206.84;5103045;28;20032;-64
2022/07/11 00:51:54;;;;;;;13.38;7.40;;;;;;;20.22;85.74;99209.34;5118632;28;20047;-64
2022/07/11 00:54:22;;;;;;;10.30;8.13;;;;;;;20.25;84.75;99197.78;5102685;28;20321;-64
2022/07/11 00:56:48;;;;;;;12.20;7.72;;;;;;;20.21;85.15;99205.06;5102974;28;20213;-64
2022/07/11 00:59:17;;;;;;;9.13;8.23;;;;;;;20.22;85.50;99211.16;5102994;28;20032;-64
2022/07/11 01:01:44;;;;;;;10.93;8.25;;;;;;;20.21;85.63;99209.47;5102880;28;20217;-64
2022/07/11 01:04:10;;;;;;;10.45;9.30;;;;;;;20.16;85.11;99199.28;5110452;28;20321;-64
2022/07/11 01:06:35;;;;;;;13.32;8.57;;;;;;;20.09;85.98;99190.97;5105610;28;20058;-64
2022/07/11 01:09:01;;;;;;;14.43;9.40;;;;;;;19.92;86.58;99196.53;5107159;28;20032;-64
2022/07/11 01:11:27;;;;;;;11.20;8.45;;;;;;;20.03;86.08;99203.72;5107107;28;20070;-64
2022/07/11 01:13:53;;;;;;;13.65;8.32;;;;;;;20.05;86.24;99199.16;5106942;28;20032;-64
2022/07/11 01:16:23;;;;;;;12.82;8.48;;;;;;;20.03;86.67;99196.66;5106910;28;20095;-64
2022/07/11 01:18:54;;;;;;;10.02;8.65;;;;;;;20.02;87.40;99208.09;5106992;28;20438;-64
2022/07/11 01:21:30;;;;;;;11.07;8.32;;;;;;;19.97;87.64;99194.44;5106872;28;20362;-65
2022/07/11 01:23:58;;;;;;;12.48;8.48;;;;;;;19.92;87.52;99191.28;5107171;28;20032;-65
2022/07/11 01:26:25;;;;;;;12.85;8.88;;;;;;;19.97;87.74;99184.78;5106877;28;20028;-64
2022/07/11 01:28:51;;;;;;;12.38;8.45;;;;;;;20.01;87.16;99185.41;5110488;28;20024;-63
2022/07/11 01:31:18;;;;;;;13.35;8.70;;;;;;;20.05;87.38;99186.88;5106737;28;20035;-63
2022/07/11 01:33:43;;;;;;;10.05;8.15;;;;;;;20.01;87.17;99182.78;5106760;28;20317;-63
2022/07/11 01:36:09;;;;;;;11.65;9.13;;;;;;;19.87;86.99;99193.41;5106051;28;20047;-63
2022/07/11 01:38:36;;;;;;;14.65;8.35;;;;;;;19.95;86.54;99183.19;5116295;28;20024;-64
2022/07/11 01:41:02;;;;;;;13.90;8.00;;;;;;;20.02;87.00;99179.19;5125771;28;20039;-64
2022/07/11 01:43:28;;;;;;;10.35;8.45;;;;;;;19.99;85.99;99197.81;5111073;28;20064;-64
2022/07/11 01:45:55;;;;;;;10.35;8.38;;;;;;;19.99;86.37;99174.16;5105895;28;20029;-64
2022/07/11 01:48:21;;;;;;;11.68;9.07;;;;;;;19.93;87.69;99164.91;5106285;28;20047;-64
2022/07/11 01:50:48;;;;;;;11.32;8.38;;;;;;;19.91;85.18;99163.31;5106478;28;20229;-64
2022/07/11 01:53:14;;;;;;;12.25;7.80;;;;;;;20.01;84.93;99159.13;5105011;28;20031;-64
2022/07/11 01:55:40;;;;;;;10.07;8.23;;;;;;;20.07;85.70;99166.56;5120389;28;20027;-65
2022/07/11 01:58:06;;;;;;;9.93;8.85;;;;;;;20.06;86.62;99157.00;5117156;28;20020;-64
2022/07/11 02:00:31;;;;;;;10.23;8.18;;;;;;;20.00;83.84;99154.81;5126322;27;20059;-64
2022/07/11 02:02:57;;;;;;;8.63;7.72;;;;;;;20.16;84.21;99159.84;5126988;28;20019;-64
2022/07/11 02:05:23;;;;;;;11.57;8.35;;;;;;;20.20;85.09;99160.47;5106234;27;20071;-63
2022/07/11 02:10:33;;;;;;;9.95;7.88;;;;;;;20.15;83.19;99153.75;5106293;28;20340;-64
2022/07/11 02:12:59;;;;;;;8.57;7.68;;;;;;;20.07;83.05;99140.28;5105822;28;20027;-64
2022/07/11 02:15:27;;;;;;;9.25;7.28;;;;;;;20.23;82.93;99142.69;5105827;28;20073;-65
2022/07/11 02:17:52;;;;;;;8.75;7.60;;;;;;;20.28;84.09;99140.56;5104669;28;20344;-63
2022/07/11 02:20:19;;;;;;;7.97;7.20;;;;;;;20.23;81.75;99144.47;5125111;28;20090;-64
2022/07/11 02:22:45;;;;;;;8.63;7.22;;;;;;;20.33;81.31;99140.25;5111422;28;20093;-63
2022/07/11 02:25:10;;;;;;;9.88;6.72;;;;;;;20.32;80.81;99135.91;5115721;28;20106;-63
2022/07/11 02:27:36;;;;;;;7.57;6.75;;;;;;;20.33;80.83;99145.50;5125863;28;20313;-64
2022/07/11 02:30:02;;;;;;;7.35;6.65;;;;;;;20.46;80.63;99146.31;5126116;28;20043;-64
2022/07/11 02:32:29;;;;;;;8.35;7.07;;;;;;;20.37;80.76;99141.72;5126049;28;20274;-64
2022/07/11 02:34:54;;;;;;;12.82;7.50;;;;;;;20.42;80.67;99144.88;5110018;27;20024;-64
2022/07/11 02:37:20;;;;;;;11.88;7.97;;;;;;;20.32;80.37;99144.69;5116139;28;20039;-64
2022/07/11 02:39:47;;;;;;;9.63;7.22;;;;;;;20.27;80.78;99143.31;5125748;27;20449;-64
2022/07/11 02:42:12;;;;;;;8.63;7.25;;;;;;;20.38;80.87;99148.66;5124201;28;20062;-64
2022/07/11 02:44:38;;;;;;;10.85;7.40;;;;;;;20.30;81.00;99136.03;5105351;28;20044;-64
2022/07/11 02:47:04;;;;;;;11.88;7.85;;;;;;;20.26;81.50;99145.09;5105330;28;20027;-64
2022/07/11 02:49:30;;;;;;;11.43;7.40;;;;;;;20.25;81.28;99129.41;5105093;28;20048;-64
2022/07/11 02:51:56;;;;;;;9.15;7.80;;;;;;;20.38;81.51;99148.66;5112726;28;20321;-64
2022/07/11 02:54:22;;;;;;;8.60;7.57;;;;;;;20.39;81.57;99150.31;5117938;28;20024;-64
2022/07/11 02:56:48;;;;;;;11.25;8.00;;;;;;;20.22;82.17;99148.88;5105201;28;20087;-64
2022/07/11 02:59:14;;;;;;;11.63;8.18;;;;;;;20.30;81.38;99154.44;5099415;28;20065;-64
2022/07/11 03:01:41;;;;;;;8.50;7.72;;;;;;;20.46;81.43;99153.38;5097715;28;20028;-64
2022/07/11 03:04:10;;;;;;;11.70;8.30;;;;;;;20.37;81.56;99160.13;5104992;28;20320;-64
2022/07/11 03:06:38;;;;;;;10.93;9.38;;;;;;;20.24;81.54;99154.88;5104760;28;20023;-63
2022/07/11 03:09:05;;;;;;;9.25;7.75;;;;;;;20.30;81.99;99151.81;5104941;28;20020;-64
2022/07/11 03:11:31;;;;;;;12.77;9.18;;;;;;;20.35;81.89;99160.22;5103669;28;20051;-63
2022/07/11 03:13:57;;;;;;;12.20;8.00;;;;;;;20.54;81.21;99156.28;5119348;28;20020;-64
2022/07/11 03:16:23;;;;;;;10.98;8.43;;;;;;;20.60;81.54;99161.09;5113655;28;20229;-64
2022/07/11 03:18:49;;;;;;;10.52;8.40;;;;;;;20.55;80.86;99150.09;5104257;28;20035;-64
2022/07/11 03:21:15;;;;;;;11.05;8.27;;;;;;;20.64;80.50;99152.03;5104293;28;20031;-63
2022/07/11 03:23:40;;;;;;;8.98;7.75;;;;;;;20.42;80.62;99154.53;5104499;28;20396;-63
2022/07/11 03:26:06;;;;;;;10.30;7.65;;;;;;;20.30;81.35;99154.44;5121492;28;20101;-64
2022/07/11 03:28:31;;;;;;;10.02;8.00;;;;;;;20.44;80.93;99150.00;5124461;28;20098;-64
2022/07/11 03:30:57;;;;;;;12.77;8.68;;;;;;;20.26;81.20;99146.88;5117294;28;20198;-63
2022/07/11 03:33:23;;;;;;;12.27;8.48;;;;;;;20.30;81.15;99136.03;5104605;28;20032;-63
2022/07/11 03:35:48;;;;;;;9.00;7.90;;;;;;;20.40;80.83;99152.00;5103816;28;20016;-63
2022/07/11 03:38:19;;;;;;;10.77;8.20;;;;;;;20.31;79.87;99094.81;5110731;28;20072;-63
2022/07/11 03:40:45;;;;;;;9.35;8.05;;;;;;;20.76;80.10;99146.88;5124822;28;20077;-63
2022/07/11 03:43:10;;;;;;;9.32;7.65;;;;;;;20.55;79.61;99144.81;5114699;28;20039;-63
2022/07/11 03:45:37;;;;;;;8.75;7.47;;;;;;;20.75;79.56;99132.91;5103753;28;20039;-63
2022/07/11 03:48:03;;;;;;;10.57;7.57;;;;;;;20.90;79.34;99148.50;5104417;28;20038;-63
2022/07/11 03:50:29;;;;;;;9.07;7.95;;;;;;;21.02;78.81;99144.97;5103878;28;20317;-63
2022/07/11 03:52:55;;;;;;;10.30;7.05;;;;;;;20.97;79.31;99142.69;5104069;28;20035;-63
2022/07/11 03:55:21;;;;;;;7.75;6.55;;;;;;;20.86;78.91;99132.94;5103668;28;20044;-64
2022/07/11 03:57:47;;;;;;;8.88;7.03;;;;;;;20.85;78.69;99152.31;5103779;28;20031;-63
2022/07/11 04:00:13;;;;;;;7.88;7.00;;;;;;;20.91;78.51;99152.81;5103634;28;20031;-63
2022/07/11 04:02:39;;;;;;;10.10;7.28;;;;;;;21.01;78.11;99152.03;5103786;28;20048;-63
2022/07/11 04:05:06;;;;;;;7.57;6.78;;;;;;;21.13;78.11;99133.66;5103418;28;20039;-63
2022/07/11 04:07:31;;;;;;;8.38;7.43;;;;;;;21.13;77.61;99150.28;5103616;28;20266;-63
2022/07/11 04:09:57;;;;;;;8.80;7.20;;;;;;;21.25;77.46;99153.81;5103752;28;20027;-63
2022/07/11 04:12:23;;;;;;;7.32;6.63;;;;;;;21.49;77.06;99145.88;5103612;28;20024;-64
2022/07/11 04:14:48;;;;;;;6.63;6.07;;;;;;;21.67;77.09;99156.00;5101866;28;20430;-64
2022/07/11 04:17:14;;;;;;;8.30;6.88;;;;;;;21.75;77.07;99158.88;5103053;28;20023;-63
2022/07/11 04:19:40;;;;;;;7.85;6.55;;;;;;;21.72;75.40;99140.69;5103406;28;20039;-64
2022/07/11 04:22:06;;;;;;;10.52;6.75;;;;;;;21.83;74.57;99151.22;5103433;28;20051;-63
2022/07/11 04:24:31;;;;;;;8.02;6.80;;;;;;;21.92;75.36;99148.81;5103588;28;20035;-63
2022/07/11 04:26:57;;;;;;;8.38;7.07;;;;;;;21.75;74.97;99153.63;5103327;28;20051;-63
2022/07/11 04:29:26;;;;;;;10.15;7.32;;;;;;;21.69;74.66;99119.78;5103351;28;20394;-63
2022/07/11 04:31:52;;;;;;;7.80;6.68;;;;;;;21.82;75.15;99135.50;5117683;28;20312;-63
2022/07/11 04:34:17;;;;;;;8.70;6.95;;;;;;;21.88;74.80;99143.78;5113848;28;20038;-63
2022/07/11 04:36:44;;;;;;;8.25;6.88;;;;;;;21.91;74.48;99144.53;5103060;28;20056;-63
2022/07/11 04:39:09;;;;;;;7.40;6.70;;;;;;;22.15;74.63;99153.16;5117993;28;20287;-63
2022/07/11 04:41:35;;;;;;;7.57;6.88;;;;;;;22.30;74.27;99145.81;5123095;28;20020;-63
2022/07/11 04:44:01;;;;;;;8.90;7.03;;;;;;;22.24;73.55;99148.94;5123347;28;20042;-63
2022/07/11 04:46:27;;;;;;;7.78;6.60;;;;;;;22.41;73.70;99137.91;5121765;28;20332;-64
2022/07/11 04:48:53;;;;;;;9.45;6.70;;;;;;;22.53;73.52;99151.97;5117259;28;20024;-64
2022/07/11 04:51:18;;;;;;;7.70;6.93;;;;;;;22.61;73.73;99138.13;5102790;28;20092;-63
2022/07/11 04:53:45;;;;;;;8.30;6.45;;;;;;;22.61;72.24;99132.84;5103216;28;20209;-63
2022/07/11 04:56:10;;;;;;;7.72;6.45;;;;;;;22.86;72.59;99139.63;5102654;28;20216;-64
2022/07/11 04:58:36;;;;;;;7.15;6.45;;;;;;;22.83;73.58;99121.41;5102759;28;20024;-64
2022/07/11 05:01:02;;;;;;;7.68;6.72;;;;;;;22.95;73.25;99138.03;5110122;28;20047;-64
2022/07/11 05:03:29;;;;;;;6.88;6.28;;;;;;;23.01;72.66;99145.44;5120446;28;20304;-64
2022/07/11 05:05:55;;;;;;;7.75;6.55;;;;;;;23.00;71.27;99129.72;5102690;28;20287;-63
2022/07/11 05:08:21;;;;;;;9.65;6.45;;;;;;;23.16;70.67;99130.19;5102717;28;20277;-64
2022/07/11 05:10:47;;;;;;;7.30;6.60;;;;;;;23.33;71.41;99122.63;5102740;28;20094;-64
2022/07/11 05:13:13;;;;;;;10.35;9.05;;;;;;;23.48;73.17;99116.06;5104808;28;20031;-64
2022/07/11 05:15:39;;;;;;;8.32;6.38;;;;;;;23.42;70.36;99117.41;5102616;28;20032;-64
2022/07/11 05:18:05;;;;;;;7.20;6.50;;;;;;;23.66;69.71;99123.41;5103186;28;20027;-64
2022/07/11 05:20:31;;;;;;;8.90;6.60;;;;;;;23.54;69.40;99112.91;5102608;28;20028;-64
2022/07/11 05:22:58;;;;;;;9.88;6.90;;;;;;;23.72;68.57;99107.03;5102884;28;20028;-64
2022/07/11 05:25:24;;;;;;;6.93;6.22;;;;;;;23.86;69.17;99105.84;5112559;28;20072;-64
2022/07/11 05:27:49;;;;;;;8.68;6.25;;;;;;;23.95;68.40;99108.53;5122869;28;20040;-63
2022/07/11 05:30:15;;;;;;;10.63;6.80;;;;;;;23.89;67.99;99106.44;5121814;28;20418;-64
2022/07/11 05:32:41;;;;;;;8.27;6.18;;;;;;;24.05;67.86;99105.09;5120155;28;20256;-64
2022/07/11 05:35:07;;;;;;;8.93;6.20;;;;;;;24.01;67.20;99106.34;5105293;28;20020;-64
2022/07/11 05:37:33;;;;;;;7.43;6.38;;;;;;;24.17;68.09;99098.75;5102995;28;20103;-64
2022/07/11 05:39:58;;;;;;;7.82;6.03;;;;;;;23.95;67.59;99105.06;5122431;28;20567;-63
2022/07/11 05:42:24;;;;;;;6.35;5.90;;;;;;;23.86;67.73;99098.75;5117209;28;20024;-62
2022/07/11 05:44:49;;;;;;;6.53;6.00;;;;;;;24.03;68.03;99099.09;5102294;28;20069;-63
2022/07/11 05:47:16;;;;;;;7.10;6.40;;;;;;;24.24;67.41;99091.09;5101865;28;20249;-63
2022/07/11 05:49:42;;;;;;;10.02;6.90;;;;;;;24.32;67.45;99096.56;5114627;28;20020;-63
2022/07/11 05:52:08;;;;;;;7.18;6.47;;;;;;;24.36;65.65;99083.91;5124128;28;20043;-62
2022/07/11 05:54:34;;;;;;;6.60;5.90;;;;;;;24.43;65.84;99096.44;5118573;28;20308;-63
2022/07/11 05:57:02;;;;;;;6.28;5.63;;;;;;;24.62;65.84;99089.53;5106234;28;20088;-63
2022/07/11 05:59:28;;;;;;;6.82;6.03;;;;;;;24.66;64.86;99101.53;5125068;28;20085;-63
2022/07/11 06:01:54;;;;;;;6.85;5.85;;;;;;;24.79;65.31;99095.97;5112405;28;20044;-63
2022/07/11 06:04:20;;;;;;;8.63;6.53;;;;;;;24.55;64.80;99094.50;5106001;28;20077;-63
2022/07/11 06:06:46;;;;;;;8.48;6.28;;;;;;;24.88;65.22;99091.63;5104531;28;20040;-64
2022/07/11 06:09:11;;;;;;;6.30;5.60;;;;;;;24.99;64.56;99094.97;5106253;28;20028;-64
2022/07/11 06:11:37;;;;;;;6.65;5.95;;;;;;;25.07;64.72;99093.44;5126243;28;20093;-64
2022/07/11 06:14:03;;;;;;;7.80;6.10;;;;;;;25.21;63.74;99093.03;5110718;28;20031;-64
2022/07/11 06:16:29;;;;;;;6.13;5.63;;;;;;;24.98;63.57;99090.66;5105555;28;20024;-64
2022/07/11 06:18:54;;;;;;;6.80;6.10;;;;;;;25.16;63.69;99084.66;5111082;28;20094;-63
2022/07/11 06:21:21;;;;;;;6.70;6.10;;;;;;;25.21;62.93;99085.06;5125158;28;20084;-63
2022/07/11 06:23:46;;;;;;;8.77;5.75;;;;;;;25.22;62.80;99081.41;5105787;28;20036;-63
2022/07/11 06:26:12;;;;;;;6.40;5.82;;;;;;;25.31;62.34;99087.69;5105784;28;20182;-63
2022/07/11 06:28:39;;;;;;;7.07;5.95;;;;;;;25.46;62.08;99085.47;5116087;28;20024;-63
2022/07/11 06:31:05;;;;;;;6.43;5.82;;;;;;;25.64;62.23;99077.59;5125894;28;20331;-63
2022/07/11 06:33:30;;;;;;;7.63;5.72;;;;;;;25.51;61.08;99080.56;5108304;28;20038;-63
2022/07/11 06:35:56;;;;;;;6.53;5.35;;;;;;;25.73;62.75;99078.53;5105225;28;20024;-63
2022/07/11 06:38:22;;;;;;;7.30;5.55;;;;;;;25.70;61.63;99073.53;5113392;28;20035;-63
2022/07/11 06:40:49;;;;;;;7.10;6.30;;;;;;;25.88;60.64;99073.59;5125818;28;20027;-63
2022/07/11 06:43:14;;;;;;;8.43;6.05;;;;;;;25.99;62.01;99084.00;5117239;28;20020;-64
2022/07/11 06:45:40;;;;;;;6.75;6.07;;;;;;;25.87;61.28;99069.25;5104870;28;20016;-63
2022/07/11 06:48:06;;;;;;;7.05;6.30;;;;;;;26.06;62.14;99074.50;5104984;28;20243;-63
2022/07/11 06:50:32;;;;;;;7.80;5.78;;;;;;;26.05;60.66;99077.31;5104611;28;20028;-63
2022/07/11 06:52:58;;;;;;;6.63;5.97;;;;;;;26.15;59.44;99067.47;5104864;28;20245;-63
2022/07/11 06:55:24;;;;;;;6.40;5.82;;;;;;;26.25;59.56;99073.56;5103675;28;20066;-63
2022/07/11 06:57:52;;;;;;;12.55;6.03;;;;;;;26.33;59.29;99070.97;5104749;28;20194;-64
2022/07/11 07:00:18;;;;;;;8.48;6.18;;;;;;;26.39;59.33;99063.41;5105378;28;20024;-63
2022/07/11 07:02:45;;;;;;;6.97;5.95;;;;;;;26.58;60.00;99073.06;5113957;28;20028;-63
2022/07/11 07:05:11;;;;;;;6.45;5.93;;;;;;;26.75;58.98;99068.78;5104119;28;20353;-63
2022/07/11 07:07:36;;;;;;;6.75;6.07;;;;;;;26.64;58.13;99045.91;5104636;28;20070;-64
2022/07/11 07:10:02;;;;;;;8.23;6.32;;;;;;;26.77;58.15;99064.16;5104506;28;20347;-64
2022/07/11 07:12:28;;;;;;;9.48;6.15;;;;;;;26.83;58.38;99061.69;5103487;28;20194;-64
2022/07/11 07:14:54;;;;;;;6.30;5.70;;;;;;;26.95;57.05;99056.16;5104863;28;20035;-63
2022/07/11 07:17:19;;;;;;;6.25;5.63;;;;;;;27.06;57.43;99050.59;5104642;28;20020;-64
2022/07/11 07:19:46;;;;;;;8.02;5.50;;;;;;;27.20;56.67;99049.19;5111729;28;20031;-64
2022/07/11 07:22:15;;;;;;;12.32;5.63;;;;;;;26.99;57.33;99050.38;5104935;28;20087;-64
2022/07/11 07:24:42;;;;;;;5.88;5.38;;;;;;;26.83;56.72;99047.59;5104281;28;20032;-63
2022/07/11 07:27:07;;;;;;;7.90;6.10;;;;;;;26.84;56.63;99043.94;5104248;28;20043;-63
2022/07/11 07:29:33;;;;;;;5.82;5.18;;;;;;;26.89;56.89;99046.97;5104260;28;20032;-63
2022/07/11 07:31:59;;;;;;;6.05;5.43;;;;;;;27.07;56.06;99046.13;5118173;28;20096;-64
2022/07/11 07:34:25;;;;;;;5.43;4.93;;;;;;;27.11;56.14;99042.16;5115503;28;20059;-64
2022/07/11 07:36:51;;;;;;;6.28;5.55;;;;;;;27.27;56.41;99036.94;5103997;28;20055;-64
2022/07/11 07:39:17;;;;;;;6.57;5.72;;;;;;;27.31;55.56;99032.16;5120165;28;20039;-64
2022/07/11 07:41:43;;;;;;;7.07;5.55;;;;;;;27.31;55.84;99045.47;5124508;28;20038;-65
2022/07/11 07:44:09;;;;;;;8.32;5.70;;;;;;;27.42;55.37;99041.72;5124917;27;20343;-64
2022/07/11 07:46:34;;;;;;;7.35;5.78;;;;;;;27.50;55.30;99031.13;5103678;28;20035;-64
2022/07/11 07:49:00;;;;;;;6.88;6.28;;;;;;;27.61;55.95;99028.19;5103978;28;20024;-65
2022/07/11 07:51:26;;;;;;;6.80;6.00;;;;;;;27.56;54.95;99041.13;5104805;28;20028;-64
2022/07/11 07:53:52;;;;;;;6.30;5.70;;;;;;;27.70;54.83;99032.53;5122385;28;20073;-64
2022/07/11 07:56:17;;;;;;;9.27;5.85;;;;;;;27.85;54.57;99032.78;5103642;28;20024;-64
2022/07/11 07:58:43;;;;;;;6.05;5.55;;;;;;;27.85;53.88;99029.28;5103601;28;20062;-64
2022/07/11 08:03:54;;;;;;;5.63;5.13;;;;;;;28.09;53.88;99025.91;5099851;28;20042;-64
2022/07/11 08:06:20;;;;;;;5.85;5.35;;;;;;;28.29;53.66;99026.47;5123946;28;20023;-64
2022/07/11 08:08:46;;;;;;;6.57;5.97;;;;;;;28.16;53.93;99026.06;5103672;28;20039;-63
2022/07/11 08:11:13;;;;;;;6.13;5.35;;;;;;;28.11;52.76;99025.75;5103492;28;20032;-64
2022/07/11 08:13:38;;;;;;;6.50;5.45;;;;;;;28.22;53.46;99022.78;5104306;28;20051;-64
2022/07/11 08:16:06;;;;;;;6.13;5.53;;;;;;;28.17;52.67;99017.09;5102794;28;20073;-63
2022/07/11 08:18:31;;;;;;;6.90;5.50;;;;;;;28.27;51.95;99009.78;5103484;28;20028;-64
2022/07/11 08:20:57;;;;;;;5.57;5.07;;;;;;;28.61;52.65;99022.16;5103462;28;20040;-64
2022/07/11 08:23:22;;;;;;;6.03;5.25;;;;;;;28.80;51.74;99020.19;5105072;28;20028;-64
2022/07/11 08:25:48;;;;;;;5.40;5.00;;;;;;;28.77;50.06;99015.19;5103460;28;20110;-64
2022/07/11 08:28:14;;;;;;;6.00;5.50;;;;;;;28.75;51.27;99015.38;5103492;28;20209;-64
2022/07/11 08:30:39;;;;;;;5.85;5.25;;;;;;;28.98;50.95;99025.34;5105778;28;20345;-64
2022/07/11 08:33:05;;;;;;;6.07;4.88;;;;;;;28.91;49.31;99014.53;5123801;28;20092;-64
2022/07/11 08:35:30;;;;;;;6.32;5.20;;;;;;;29.04;49.24;99008.66;5103358;28;20064;-63
2022/07/11 08:37:56;;;;;;;6.15;5.00;;;;;;;29.18;47.61;99002.66;5107582;28;20244;-63
2022/07/11 08:40:22;;;;;;;5.07;4.68;;;;;;;29.28;46.75;99010.50;5109303;28;20035;-63
2022/07/11 08:42:48;;;;;;;6.95;4.90;;;;;;;29.46;47.55;99006.75;5103224;28;20027;-64
2022/07/11 08:45:15;;;;;;;7.15;4.80;;;;;;;29.57;46.52;99014.41;5103143;28;20032;-64
2022/07/11 08:47:41;;;;;;;7.80;4.90;;;;;;;29.72;45.39;99017.19;5102461;28;20027;-62
2022/07/11 08:50:09;;;;;;;9.55;5.07;;;;;;;29.88;45.46;99011.78;5102605;28;20030;-63
2022/07/11 08:52:36;;;;;;;6.43;4.72;;;;;;;29.76;45.63;98983.81;5102963;28;20052;-64
2022/07/11 08:55:06;;;;;;;7.00;4.82;;;;;;;30.01;43.84;99016.56;5102677;28;20024;-63
2022/07/11 08:57:35;;;;;;;5.25;4.32;;;;;;;30.09;45.04;99007.69;5100140;28;20028;-63
2022/07/11 09:00:01;;;;;;;8.02;5.10;;;;;;;30.20;44.59;99006.44;5102686;28;20071;-63
2022/07/11 09:02:30;;;;;;;7.03;4.78;;;;;;;30.33;44.31;99013.88;5102679;28;20052;-64
2022/07/11 09:04:55;;;;;;;13.10;4.57;;;;;;;30.24;43.71;99008.59;5099751;28;20020;-63
2022/07/11 09:07:21;;;;;;;9.48;4.90;;;;;;;30.02;44.53;98998.72;5102320;28;20047;-63
2022/07/11 09:09:46;;;;;;;8.02;5.13;;;;;;;29.96;43.72;99010.94;5104374;28;20311;-63
2022/07/11 09:12:15;;;;;;;7.25;4.68;;;;;;;29.88;44.23;99002.97;5102191;28;20035;-63
2022/07/11 09:14:46;;;;;;;7.50;5.10;;;;;;;30.06;44.37;99000.88;5102124;28;20335;-63
2022/07/11 09:17:12;;;;;;;5.25;4.75;;;;;;;30.15;44.87;99000.81;5102468;28;20024;-65
2022/07/11 09:19:39;;;;;;;5.85;4.60;;;;;;;30.17;43.53;99001.47;5101679;28;20252;-63
2022/07/11 09:27:53;;;;;;;4.70;4.30;;;;;;;30.00;43.99;98955.31;5094135;28;20039;-66
2022/07/11 09:30:30;;;;;;;5.88;5.25;;;;;;;30.34;45.14;98995.00;5106766;28;20043;-65
2022/07/11 09:32:57;;;;;;;6.07;5.47;;;;;;;30.41;45.91;98993.28;5094394;28;20020;-65
2022/07/11 09:35:25;;;;;;;5.75;5.22;;;;;;;30.37;45.34;98985.78;5106042;28;20019;-65
2022/07/11 09:37:51;;;;;;;5.93;5.28;;;;;;;30.30;44.84;98985.69;5114563;28;20111;-65
2022/07/11 09:40:17;;;;;;;6.57;5.43;;;;;;;30.11;45.81;98979.81;5106574;28;20703;-64
2022/07/11 09:42:50;;;;;;;6.38;5.28;;;;;;;29.85;45.31;98937.38;5106047;28;20020;-65
2022/07/11 09:45:18;;;;;;;5.80;5.30;;;;;;;30.34;45.19;98984.31;5105930;28;20039;-64
2022/07/11 09:47:48;;;;;;;6.80;5.38;;;;;;;30.32;44.36;98974.81;5104801;28;20035;-64
2022/07/11 09:50:25;;;;;;;6.68;4.93;;;;;;;30.50;45.64;98961.16;5106484;28;20054;-65
2022/07/11 09:53:17;;;;;;;5.32;4.82;;;;;;;30.48;42.35;98976.56;5106338;28;20050;-64
2022/07/11 09:55:48;;;;;;;5.30;4.75;;;;;;;30.46;42.47;98968.72;5104008;28;20069;-64
2022/07/11 09:58:16;;;;;;;5.20;4.60;;;;;;;30.53;42.79;98976.84;5111624;28;20216;-63
2022/07/11 10:00:43;;;;;;;5.57;5.07;;;;;;;30.39;41.58;98962.41;5125479;28;20034;-63
2022/07/11 10:03:11;;;;;;;5.10;4.70;;;;;;;30.67;43.48;98959.19;5126522;28;20031;-65
2022/07/11 10:05:38;;;;;;;5.82;4.50;;;;;;;30.80;41.55;98959.41;5125573;28;20098;-65
2022/07/11 10:08:04;;;;;;;4.38;3.75;;;;;;;30.89;38.73;98960.16;5126125;28;20031;-65
2022/07/11 10:10:32;;;;;;;8.52;4.30;;;;;;;30.67;38.53;98930.63;5125601;28;20020;-65
2022/07/11 10:12:58;;;;;;;5.00;3.72;;;;;;;30.86;36.46;98960.53;5121731;28;20047;-64
2022/07/11 10:15:32;;;;;;;5.03;3.78;;;;;;;30.81;37.03;98927.16;5105935;28;20028;-66
2022/07/11 10:18:09;;;;;;;8.35;4.35;;;;;;;30.97;38.17;98958.22;5085489;28;20086;-64
2022/07/11 10:20:50;;;;;;;7.53;4.05;;;;;;;30.95;37.89;98954.06;5103505;28;20020;-64
2022/07/11 10:23:31;;;;;;;3.70;3.40;;;;;;;31.09;37.98;98949.78;5105668;28;20048;-65
2022/07/11 10:26:12;;;;;;;8.93;3.78;;;;;;;31.13;37.56;98951.09;5105721;28;20096;-65
2022/07/11 10:28:48;;;;;;;5.38;3.92;;;;;;;31.11;38.21;98945.91;5115469;28;20035;-65
2022/07/11 10:31:19;;;;;;;4.72;3.90;;;;;;;31.08;37.83;98948.94;5126003;28;20031;-65
2022/07/11 10:34:15;;;;;;;4.45;4.07;;;;;;;31.26;38.79;98945.91;5123381;28;20620;-65
2022/07/11 10:36:43;;;;;;;6.88;4.18;;;;;;;31.23;39.29;98948.13;5105221;28;20044;-66
2022/07/11 10:39:29;;;;;;;6.75;4.15;;;;;;;31.29;39.12;98966.13;5119123;28;20343;-63
2022/07/11 10:42:00;;;;;;;4.95;4.30;;;;;;;31.28;39.03;98948.38;5105500;28;20042;-66
2022/07/11 10:44:28;;;;;;;5.53;4.20;;;;;;;31.33;39.98;98944.16;5105418;28;20152;-67
2022/07/11 10:46:54;;;;;;;5.95;4.55;;;;;;;31.35;39.57;98937.78;5104907;28;20580;-65
2022/07/11 10:49:31;;;;;;;6.45;4.70;;;;;;;31.43;40.41;98941.19;5112292;28;20059;-65
2022/07/11 10:52:07;;;;;;;7.13;4.57;;;;;;;31.44;40.20;98937.50;5108503;28;20325;-67
2022/07/11 10:54:33;;;;;;;7.30;4.78;;;;;;;31.37;39.29;98938.41;5105730;28;20339;-63
2022/07/11 10:57:39;;;;;;;8.07;4.75;;;;;;;31.41;38.54;98927.16;5124450;28;20028;-64
2022/07/11 11:00:19;;;;;;;9.77;4.55;;;;;;;31.43;38.02;98935.00;5084852;28;20024;-59
2022/07/11 11:03:05;;;;;;;7.18;4.43;;;;;;;31.35;38.63;98930.56;5103504;28;20070;-60
2022/07/11 11:05:48;;;;;;;4.97;4.47;;;;;;;31.37;39.06;98917.00;5122044;28;20029;-59
2022/07/11 11:08:32;;;;;;;7.70;4.10;;;;;;;31.52;38.63;98936.56;5125098;27;20051;-60
2022/07/11 11:10:59;;;;;;;6.45;4.22;;;;;;;31.38;37.57;98927.53;5125020;28;20027;-64
2022/07/11 11:13:28;;;;;;;6.03;4.00;;;;;;;31.41;37.69;98926.31;5111093;28;20024;-63
2022/07/11 11:15:59;;;;;;;5.78;4.38;;;;;;;31.48;37.58;98928.09;5103624;28;20073;-67
2022/07/11 11:18:24;;;;;;;10.52;4.63;;;;;;;31.47;37.94;98915.72;5104664;28;20020;-66
2022/07/11 11:21:00;;;;;;;5.80;5.07;;;;;;;31.65;37.74;98935.91;5104788;28;20051;-64
2022/07/11 11:23:44;;;;;;;5.97;4.55;;;;;;;31.61;37.81;98922.09;5120848;28;20305;-64
2022/07/11 11:26:15;;;;;;;10.80;4.72;;;;;;;31.70;38.91;98930.84;5111071;28;20042;-63
2022/07/11 11:28:57;;;;;;;;;;;;;;;31.86;38.78;98915.56;5103310;28;20062;-66
2022/07/11 11:31:23;;;;;;;6.88;4.57;;;;;;;31.81;37.50;98930.34;5085860;28;19956;-64
2022/07/11 11:33:49;;;;;;;5.72;4.53;;;;;;;31.80;37.52;98915.28;5104339;28;20028;-64
2022/07/11 11:36:20;;;;;;;5.82;4.65;;;;;;;31.53;36.41;98878.50;5104102;28;20146;-66
2022/07/11 11:38:46;;;;;;;7.88;4.55;;;;;;;31.78;37.23;98933.41;5115310;28;20035;-64
2022/07/11 11:41:23;;;;;;;7.78;4.43;;;;;;;31.67;36.95;98925.84;5110408;28;20028;-60
2022/07/11 11:43:50;;;;;;;8.10;4.45;;;;;;;31.83;36.90;98914.91;5103926;28;20030;-60